Latest Weather Observations for Mount Crawford

IDS60901

Issued at 6:21 pm CST Sunday 25 September 2016 (issued every 10 minutes, with the page automatically refreshed every 10 minutes)

About weather observations | Map of Adelaide area stations | Latest observations for Adelaide area | Other Formats
Station Details ID: 023878 Name: MOUNT CRAWFORD AWS Lat: -34.73 Lon: 138.93 Height: 525.0 m
Data from the previous 72 hours. | See also: Recent months at Mount Crawford
Date/Time
CST
Temp
°C
App
Temp
°C
Dew
Point
°C
Rel
Hum
%
Delta-T
°C
Wind Press
QNH
hPa
Press
MSL
hPa
Rain since
9am
mm
Dir  Spd
km/h
Gust
km/h
Spd
kts
Gust
kts
25/06:00pm 9.3 5.2 6.0 80 1.6 W 17 26 9 14 1013.3 1013.0 0.2
25/05:30pm 9.2 4.5 5.2 76 1.9 W 19 26 10 14 1012.9 1012.7 0.2
25/05:00pm 9.5 4.6 5.1 74 2.0 WSW 20 32 11 17 1012.7 1012.5 0.2
25/04:30pm 10.0 4.7 5.0 71 2.3 WSW 22 32 12 17 1012.8 1012.6 0.2
25/04:00pm 10.4 5.1 5.0 69 2.5 W 22 33 12 18 1012.7 1012.5 0.2
25/03:30pm 10.1 4.7 4.7 69 2.5 WSW 22 32 12 17 1012.8 1012.6 0.2
25/03:00pm 10.6 5.8 4.7 67 2.7 W 19 30 10 16 1012.9 1012.7 0.2
25/02:30pm 10.4 5.0 4.5 67 2.7 W 22 32 12 17 1012.9 1012.7 0.2
25/02:00pm 10.5 5.6 4.9 68 2.6 WSW 20 30 11 16 1013.3 1013.0 0.2
25/01:30pm 10.2 5.0 5.4 72 2.3 WSW 22 32 12 17 1013.5 1013.2 0.2
25/01:00pm 10.0 4.2 4.6 69 2.5 WSW 24 33 13 18 1013.7 1013.4 0.2
25/12:30pm 11.2 6.5 5.9 70 2.5 WSW 20 33 11 18 1013.9 1013.7 0.2
25/12:00pm 9.4 5.0 4.6 72 2.2 SW 17 28 9 15 1014.2 1014.0 0.2
25/11:30am 9.9 5.1 4.9 71 2.3 SW 19 30 10 16 1014.4 1014.2 0.2
25/11:00am 10.0 4.4 5.2 72 2.2 SW 24 35 13 19 1014.4 1014.2 0.2
25/10:30am 9.3 4.8 6.2 81 1.5 SW 19 28 10 15 1014.6 1014.4 0.2
25/10:00am 8.5 4.2 7.1 91 0.7 SW 19 32 10 17 1014.9 1014.7 0.2
25/09:30am 6.8 2.5 6.8 100 0.0 SW 19 28 10 15 1015.3 1015.0 0.2
25/09:00am 6.8 3.6 6.8 100 0.0 WSW 13 19 7 10 1015.2 1014.9 4.0
25/08:30am 6.7 3.1 6.7 100 0.0 WSW 15 22 8 12 1015.1 1014.8 4.0
25/08:00am 6.3 1.7 6.3 100 0.0 WSW 20 35 11 19 1014.7 1014.5 4.0
25/07:30am 6.4 3.1 6.4 100 0.0 WSW 13 19 7 10 1014.4 1014.2 4.0
25/07:00am 5.5 2.0 5.5 100 0.0 SW 13 19 7 10 1013.8 1013.6 4.0
25/06:30am 5.3 1.8 5.3 100 0.0 WSW 13 17 7 9 1013.4 1013.1 4.0
25/06:00am 5.0 1.0 5.0 100 0.0 SW 15 20 8 11 1012.9 1012.7 4.0
25/05:30am 4.7 1.4 4.7 100 0.0 SW 11 15 6 8 1012.5 1012.3 4.0
25/05:00am 5.0 1.4 5.0 100 0.0 SW 13 22 7 12 1012.2 1012.0 4.0
25/04:30am 5.0 0.6 5.0 100 0.0 WSW 17 22 9 12 1012.1 1011.8 3.8
25/04:00am 4.9 1.6 4.8 99 0.0 WSW 11 17 6 9 1011.9 1011.6 3.8
25/03:30am 4.3 0.9 4.2 99 0.0 WSW 11 15 6 8 1011.7 1011.4 3.8
25/03:00am 4.9 1.6 4.8 99 0.0 WSW 11 19 6 10 1011.3 1011.0 3.6
25/02:30am 5.5 1.4 4.3 92 0.5 SW 15 24 8 13 1011.2 1010.9 3.6
25/02:00am 5.0 1.2 4.0 93 0.4 WSW 13 19 7 10 1011.5 1011.2 3.6
25/01:30am 5.2 1.1 4.3 94 0.4 SW 15 20 8 11 1011.6 1011.3 3.6
25/01:00am 5.2 1.2 4.9 98 0.1 SW 15 20 8 11 1011.6 1011.3 3.6
25/12:30am 5.5 1.2 5.2 98 0.1 SW 17 22 9 12 1011.5 1011.2 3.6
25/12:00am 5.9 1.7 5.8 99 0.0 SW 17 26 9 14 1011.4 1011.1 3.6
 
Date/Time
CST
Temp
°C
App
Temp
°C
Dew
Point
°C
Rel
Hum
%
Delta-T
°C
Wind Press
QNH
hPa
Press
MSL
hPa
Rain since
9am
mm
Dir  Spd
km/h
Gust
km/h
Spd
kts
Gust
kts
24/11:30pm 6.2 2.1 6.1 99 0.0 SW 17 26 9 14 1011.4 1011.1 3.6
24/11:00pm 6.1 2.0 6.0 99 0.0 SW 17 26 9 14 1011.4 1011.1 3.6
24/10:30pm 6.1 2.0 6.0 99 0.0 SW 17 24 9 13 1011.5 1011.2 3.6
24/10:00pm 6.4 2.3 6.3 99 0.0 SW 17 22 9 12 1011.3 1011.0 3.6
24/09:30pm 6.5 3.2 6.4 99 0.0 SW 13 20 7 11 1011.2 1010.9 3.6
24/09:00pm 6.9 3.0 6.9 100 0.0 SW 17 24 9 13 1011.1 1010.8 3.6
24/08:30pm 7.1 4.0 7.1 100 0.0 SW 13 20 7 11 1010.5 1010.3 3.6
24/08:00pm 7.4 3.9 7.4 100 0.0 SW 15 22 8 12 1010.1 1009.8 3.6
24/07:30pm 7.9 3.8 7.8 99 0.0 SW 19 32 10 17 1009.6 1009.3 3.6
24/07:00pm 8.5 4.3 8.1 97 0.2 SW 20 30 11 16 1008.7 1008.4 3.6
24/06:30pm 8.7 4.6 8.6 99 0.1 SW 20 30 11 16 1008.3 1008.0 3.6
24/06:00pm 9.2 5.2 9.1 99 0.1 SW 20 32 11 17 1007.9 1007.6 3.6
24/05:30pm 9.8 5.3 8.7 93 0.6 SW 22 33 12 18 1007.3 1007.0 3.6
24/05:00pm 10.6 6.3 9.5 93 0.6 SW 22 33 12 18 1006.8 1006.5 3.6
24/04:30pm 10.7 6.0 9.1 90 0.8 SW 24 35 13 19 1006.3 1006.0 3.6
24/04:00pm 10.4 6.3 10.1 98 0.2 SW 22 35 12 19 1005.9 1005.6 3.6
24/03:30pm 10.3 5.9 10.3 100 0.0 SW 24 41 13 22 1005.7 1005.4 3.6
24/03:00pm 10.5 6.9 10.5 100 0.0 SW 20 32 11 17 1005.5 1005.1 3.6
24/02:30pm 10.6 6.6 10.6 100 0.0 SW 22 37 12 20 1005.3 1004.9 3.6
24/02:00pm 10.4 6.0 10.4 100 0.0 SW 24 39 13 21 1005.0 1004.6 3.6
24/01:39pm 10.3 5.1 10.3 100 0.0 SW 28 46 15 25 1004.8 1004.5 3.6
24/01:30pm 10.9 6.3 10.9 100 0.0 SW 26 39 14 21 1005.0 1004.6 3.6
24/01:00pm 11.2 7.4 11.2 100 0.0 WSW 22 30 12 16 1005.2 1004.8 3.4
24/12:30pm 11.1 7.3 11.1 100 0.0 WNW 22 32 12 17 1005.5 1005.1 3.4
24/12:11pm 10.7 5.6 10.7 100 0.0 W 28 46 15 25 1005.5 1005.1 3.4
24/12:00pm 10.5 5.4 10.5 100 0.0 W 28 39 15 21 1005.6 1005.2 3.4
24/11:30am 10.3 5.5 10.3 100 0.0 W 26 39 14 21 1005.6 1005.2 3.4
24/11:00am 10.2 5.4 10.2 100 0.0 WNW 26 37 14 20 1005.9 1005.6 3.4
24/10:30am 10.1 5.6 10.1 100 0.0 WNW 24 35 13 19 1006.1 1005.8 2.4
24/10:00am 10.0 6.3 10.0 100 0.0 WNW 20 30 11 16 1006.2 1005.9 1.2
24/09:30am 9.9 5.7 9.9 100 0.0 W 22 33 12 18 1006.2 1005.9 0.2
24/09:00am 10.0 5.5 10.0 100 0.0 WNW 24 35 13 19 1006.0 1005.7 4.0
24/08:30am 10.3 5.1 10.3 100 0.0 NNW 28 35 15 19 1006.2 1005.9 3.6
24/08:00am 9.4 3.9 9.3 99 0.1 NNW 28 43 15 23 1006.4 1006.1 3.4
24/07:30am 9.5 5.6 9.4 99 0.1 WNW 20 30 11 16 1006.5 1006.2 2.8
24/07:00am 9.7 5.1 9.6 99 0.1 NNW 24 32 13 17 1006.4 1006.1 1.8
24/06:30am 9.9 5.7 9.8 99 0.1 W 22 30 12 16 1006.5 1006.2 1.2
24/06:00am 10.8 5.8 8.2 84 1.3 NW 24 35 13 19 1006.4 1006.1 0.0
24/05:30am 12.3 6.5 6.1 66 3.0 NW 26 37 14 20 1005.7 1005.4 0.0
24/05:00am 12.5 7.3 5.7 63 3.3 WNW 22 37 12 20 1005.6 1005.2 0.0
24/04:30am 12.8 7.2 5.5 61 3.5 NNW 24 33 13 18 1005.5 1005.1 0.0
24/04:00am 12.9 7.7 5.3 60 3.6 NW 22 30 12 16 1005.3 1004.9 0.0
24/03:30am 12.8 7.9 5.2 60 3.6 NW 20 28 11 15 1005.8 1005.5 0.0
24/03:00am 13.0 8.1 5.2 59 3.7 NW 20 30 11 16 1006.1 1005.8 0.0
24/02:30am 12.9 8.2 5.1 59 3.7 NNW 19 26 10 14 1006.0 1005.7 0.0
24/02:00am 13.2 8.3 4.9 57 4.0 NNW 20 28 11 15 1006.3 1006.0 0.0
24/01:30am 13.2 7.9 4.9 57 4.0 NNW 22 32 12 17 1006.5 1006.2 0.0
24/01:00am 13.0 7.7 5.2 59 3.7 NNW 22 30 12 16 1006.8 1006.5 0.0
24/12:30am 13.3 8.0 5.2 58 3.9 N 22 35 12 19 1007.0 1006.6 0.0
24/12:00am 13.1 7.5 5.3 59 3.8 N 24 33 13 18 1007.3 1007.0 0.0
 
Date/Time
CST
Temp
°C
App
Temp
°C
Dew
Point
°C
Rel
Hum
%
Delta-T
°C
Wind Press
QNH
hPa
Press
MSL
hPa
Rain since
9am
mm
Dir  Spd
km/h
Gust
km/h
Spd
kts
Gust
kts
23/11:30pm 12.8 8.4 6.4 65 3.1 N 19 26 10 14 1007.3 1007.0 0.0
23/11:00pm 12.6 7.6 6.6 67 3.0 N 22 28 12 15 1007.4 1007.1 0.0
23/10:30pm 12.9 8.3 6.7 66 3.1 N 20 28 11 15 1007.9 1007.6 0.0
23/10:00pm 12.7 8.8 7.2 69 2.7 N 17 22 9 12 1008.0 1007.7 0.0
23/09:30pm 12.8 9.0 7.5 70 2.7 N 17 22 9 12 1008.3 1008.0 0.0
23/09:00pm 12.7 8.9 7.6 71 2.6 NNE 17 20 9 11 1008.2 1007.9 0.0
23/08:30pm 13.1 9.8 8.0 71 2.6 N 15 20 8 11 1008.4 1008.1 0.0
23/08:00pm 13.1 8.7 7.5 69 2.8 NNE 20 24 11 13 1008.2 1007.9 0.0
23/07:30pm 12.4 8.7 8.1 75 2.2 NNE 17 20 9 11 1008.3 1008.0 0.0
23/07:00pm 12.4 8.4 8.1 75 2.2 NE 19 24 10 13 1007.6 1007.3 0.0
23/06:30pm 13.1 10.3 8.6 74 2.3 NNE 13 17 7 9 1007.9 1007.6 0.0
23/06:00pm 13.5 11.0 8.1 70 2.8 N 11 15 6 8 1008.0 1007.7 0.0
23/05:30pm 14.4 10.7 7.9 65 3.3 N 17 24 9 13 1007.9 1007.6 0.0
23/05:00pm 14.9 11.0 8.8 67 3.2 NNW 19 24 10 13 1008.1 1007.8 0.0
23/04:30pm 15.1 10.6 8.6 65 3.4 NNW 22 30 12 16 1008.1 1007.8 0.0
23/04:00pm 15.6 11.6 9.1 65 3.4 NW 20 32 11 17 1008.2 1007.9 0.0
23/03:30pm 15.7 11.3 9.1 65 3.5 NNW 22 32 12 17 1008.3 1008.0 0.0
23/03:00pm 15.6 11.6 9.1 65 3.4 N 20 35 11 19 1008.5 1008.2 0.0
23/02:30pm 15.5 11.8 10.1 70 2.9 N 20 30 11 16 1008.8 1008.5 0.0
23/02:00pm 14.8 10.5 9.4 70 2.9 N 22 32 12 17 1009.1 1008.8 0.0
23/01:30pm 14.1 9.6 8.5 69 2.9 N 22 33 12 18 1009.9 1009.6 0.0
23/01:00pm 13.7 8.8 8.5 71 2.7 N 24 35 13 19 1010.3 1010.0 0.0
23/12:30pm 13.4 8.8 8.3 71 2.6 N 22 32 12 17 1010.8 1010.6 0.0
23/12:00pm 12.8 7.6 7.3 69 2.8 NNE 24 33 13 18 1011.2 1010.9 0.0
23/11:30am 12.8 8.0 8.9 77 2.0 N 24 32 13 17 1011.8 1011.5 0.0
23/11:00am 11.3 6.1 7.2 76 2.0 N 24 35 13 19 1012.3 1012.1 0.0
23/10:30am 11.4 7.1 7.7 78 1.8 N 20 33 11 18 1012.7 1012.5 0.0
23/10:00am 10.9 5.4 7.4 79 1.7 NNE 26 33 14 18 1012.9 1012.7 0.0
23/09:30am 10.8 5.6 7.1 78 1.8 NE 24 30 13 16 1013.1 1012.8 0.0
23/09:00am 9.8 5.2 6.3 79 1.7 NE 20 28 11 15 1013.5 1013.2 0.2
23/08:30am 9.7 5.2 7.1 84 1.3 NE 20 30 11 16 1013.9 1013.7 0.2
23/08:00am 8.4 3.3 6.0 85 1.1 NE 22 28 12 15 1014.3 1014.1 0.2
23/07:30am 7.8 2.3 6.1 89 0.8 NE 24 30 13 16 1014.3 1014.1 0.2
23/07:00am 6.6 1.9 5.1 90 0.7 NE 19 24 10 13 1014.7 1014.5 0.2
23/06:30am 5.6 0.8 4.4 92 0.5 NE 19 24 10 13 1014.6 1014.4 0.2
23/06:00am 5.4 1.0 4.5 94 0.4 NE 17 22 9 12 1014.5 1014.3 0.2
23/05:30am 5.5 1.8 4.3 92 0.5 NE 13 19 7 10 1014.9 1014.7 0.2
23/05:00am 5.6 1.5 4.4 92 0.5 NE 15 22 8 12 1015.2 1014.9 0.2
23/04:30am 5.7 1.2 4.3 91 0.6 NNE 17 22 9 12 1015.5 1015.3 0.2
23/04:00am 5.6 0.8 4.7 94 0.4 NE 19 26 10 14 1014.9 1014.7 0.2
23/03:30am 5.5 0.5 4.6 94 0.4 NE 20 26 11 14 1014.7 1014.5 0.2
23/03:00am 5.5 0.2 4.8 95 0.3 ENE 22 30 12 16 1014.8 1014.6 0.2
23/02:30am 5.4 0.1 5.0 97 0.2 ENE 22 30 12 16 1015.2 1014.9 0.2
23/02:00am 5.7 -0.3 5.4 98 0.1 ENE 26 33 14 18 1015.5 1015.3 0.2
23/01:30am 5.5 -0.1 5.4 99 0.0 ENE 24 30 13 16 1015.8 1015.6 0.2
23/01:00am 5.2 -0.5 5.1 99 0.0 ENE 24 30 13 16 1015.9 1015.7 0.2
23/12:30am 5.1 -0.2 5.0 99 0.0 ENE 22 28 12 15 1016.4 1016.2 0.2
23/12:00am 5.0 0.1 4.9 99 0.0 E 20 24 11 13 1016.6 1016.4 0.2
 
Date/Time
CST
Temp
°C
App
Temp
°C
Dew
Point
°C
Rel
Hum
%
Delta-T
°C
Wind Press
QNH
hPa
Press
MSL
hPa
Rain since
9am
mm
Dir  Spd
km/h
Gust
km/h
Spd
kts
Gust
kts
22/11:30pm 5.4 0.5 5.3 99 0.0 E 20 24 11 13 1017.1 1016.9 0.2
22/11:00pm 5.7 1.4 5.4 98 0.1 E 17 19 9 10 1017.6 1017.4 0.2
22/10:30pm 6.2 2.4 5.6 96 0.3 E 15 17 8 9 1018.0 1017.8 0.2
22/10:00pm 6.8 3.8 5.9 94 0.4 E 11 15 6 8 1018.1 1017.9 0.2
22/09:30pm 7.2 4.6 6.0 92 0.6 ESE 9 13 5 7 1018.5 1018.3 0.2
22/09:00pm 7.5 4.5 6.1 91 0.7 ESE 11 13 6 7 1018.8 1018.7 0.2
22/08:30pm 7.6 4.6 6.1 90 0.7 ESE 11 15 6 8 1018.7 1018.6 0.2
22/08:00pm 7.6 5.0 6.1 90 0.7 SSW 9 11 5 6 1018.8 1018.7 0.2
22/07:30pm 7.7 4.6 5.7 87 0.9 SW 11 15 6 8 1018.7 1018.6 0.2
22/07:00pm 8.0 5.4 6.1 88 0.9 SW 9 13 5 7 1018.5 1018.3 0.2
22/06:30pm 8.2 5.6 6.3 88 0.9 SW 9 13 5 7 1018.3 1018.1 0.2

Latest Capital City Observations: Canberra | Sydney | Melbourne | Brisbane | Adelaide | Perth | Hobart | Darwin

Other Formats:

Comma delimited format used in spreadsheet applications
http://www.bom.gov.au/fwo/IDS60901/IDS60901.94678.axf

JavaScript Object Notation format (JSON) in row-major order
http://www.bom.gov.au/fwo/IDS60901/IDS60901.94678.json